createdAt,value
2023-05-10T00:19:17.437Z,42.03
2023-05-10T00:39:17.409Z,42.77
2023-05-10T00:59:17.386Z,44.54
2023-05-10T01:19:17.345Z,44.94
2023-05-10T01:39:17.328Z,45.52
2023-05-10T01:59:17.319Z,46.31
2023-05-10T02:19:17.348Z,46.59
2023-05-10T02:39:17.281Z,46.6
2023-05-10T02:59:17.245Z,46.49
2023-05-10T03:19:17.230Z,46.37
2023-05-10T03:39:17.211Z,46.21
2023-05-10T03:59:17.179Z,46.04
2023-05-10T04:19:17.216Z,45.89
2023-05-10T04:39:17.126Z,45.72
2023-05-10T04:59:17.123Z,45.57
2023-05-10T05:19:17.092Z,45.41
2023-05-10T05:59:16.765Z,45.16
2023-05-10T06:19:17.042Z,45.04
2023-05-10T06:39:16.750Z,44.94
2023-05-10T06:59:16.737Z,44.88
2023-05-10T07:19:16.978Z,44.85
2023-05-10T07:39:24.669Z,44.62
2023-05-10T07:59:17.056Z,45.33
2023-05-10T08:19:16.863Z,44.28
2023-05-10T08:39:27.016Z,44.2
2023-05-10T08:59:16.789Z,44.12
2023-05-10T09:19:16.784Z,44.81
2023-05-10T09:39:16.757Z,44.74
2023-05-10T09:59:16.732Z,43.79
2023-05-10T10:19:16.697Z,43.7
2023-05-10T10:39:16.673Z,43.6
2023-05-10T10:59:16.638Z,44.54
2023-05-10T11:19:16.642Z,44.58
2023-05-10T11:39:16.659Z,44.74
2023-05-10T12:19:16.558Z,43.87
2023-05-10T12:39:16.504Z,43.87
2023-05-10T12:59:16.483Z,44.8
2023-05-10T13:39:16.409Z,44.39
2023-05-10T14:39:16.326Z,43.56
2023-05-10T14:59:16.014Z,43.89
2023-05-10T15:39:16.248Z,43.64
2023-05-10T15:59:16.198Z,43.21
2023-05-10T16:19:16.269Z,43.14
2023-05-10T16:39:16.157Z,43.08
2023-05-10T16:59:16.105Z,43.03
2023-05-10T17:19:15.455Z,42.95
2023-05-10T17:39:16.052Z,42.89
2023-05-10T17:59:16.026Z,42.84
2023-05-10T18:19:16.043Z,42.79
